createdAt,value
2023-02-19T00:01:34.529Z,100.00
2023-02-19T00:04:13.614Z,100.00
2023-02-19T00:06:45.652Z,100.00
2023-02-19T00:09:18.440Z,100.00
2023-02-19T00:11:48.409Z,100.00
2023-02-19T00:14:21.495Z,100.00
2023-02-19T00:16:51.317Z,100.00
2023-02-19T00:19:21.662Z,100.00
2023-02-19T00:21:53.217Z,100.00
2023-02-19T00:24:23.005Z,100.00
2023-02-19T00:26:52.791Z,100.00
2023-02-19T00:29:22.721Z,100.00
2023-02-19T00:31:52.573Z,100.00
2023-02-19T00:34:22.439Z,100.00
2023-02-19T00:36:52.234Z,100.00
2023-02-19T00:39:22.145Z,100.00
2023-02-19T00:41:51.998Z,100.00
2023-02-19T00:44:21.806Z,100.00
2023-02-19T00:46:51.629Z,100.00
2023-02-19T00:49:23.555Z,100.00
2023-02-19T00:51:53.886Z,100.00
2023-02-19T00:54:25.016Z,100.00
2023-02-19T00:56:53.981Z,100.00
2023-02-19T00:59:23.741Z,100.00
2023-02-19T01:01:53.536Z,100.00
2023-02-19T01:04:23.358Z,100.00
2023-02-19T01:06:52.005Z,100.00
2023-02-19T01:09:20.488Z,100.00
2023-02-19T01:11:48.854Z,100.00
2023-02-19T01:14:17.314Z,100.00
2023-02-19T01:16:45.862Z,100.00
2023-02-19T01:19:14.165Z,100.00
2023-02-19T01:21:42.690Z,100.00
2023-02-19T01:24:11.307Z,100.00
2023-02-19T01:26:40.627Z,100.00
2023-02-19T01:29:08.072Z,100.00
2023-02-19T01:31:36.756Z,100.00
2023-02-19T01:34:05.214Z,100.00
2023-02-19T01:36:34.756Z,100.00
2023-02-19T01:39:04.974Z,100.00
2023-02-19T01:41:38.803Z,100.00
2023-02-19T01:44:28.417Z,100.00
2023-02-19T01:46:58.759Z,100.00
2023-02-19T01:49:35.707Z,100.00
2023-02-19T01:52:34.361Z,100.00
2023-02-19T01:55:08.688Z,100.00
2023-02-19T01:57:47.666Z,100.00
2023-02-19T02:00:17.702Z,100.00
2023-02-19T02:02:53.058Z,100.00
2023-02-19T02:05:57.094Z,100.00
2023-02-19T02:08:47.300Z,100.00
2023-02-19T02:11:14.827Z,100.00
2023-02-19T02:13:43.596Z,100.00
2023-02-19T02:16:41.590Z,100.00
2023-02-19T02:19:52.636Z,100.00
2023-02-19T02:22:56.215Z,100.00
2023-02-19T02:25:41.393Z,100.00
2023-02-19T02:28:21.155Z,100.00
2023-02-19T02:30:58.176Z,100.00
2023-02-19T02:33:43.410Z,100.00
2023-02-19T02:36:20.902Z,100.00
2023-02-19T02:38:54.182Z,100.00
2023-02-19T02:41:25.529Z,100.00
2023-02-19T02:43:55.266Z,100.00
2023-02-19T02:46:37.067Z,100.00
2023-02-19T02:49:23.850Z,100.00
2023-02-19T02:51:56.407Z,100.00
2023-02-19T02:54:53.290Z,100.00
2023-02-19T02:57:23.370Z,100.00
2023-02-19T02:59:53.570Z,100.00
2023-02-19T03:02:28.711Z,100.00
2023-02-19T03:05:31.164Z,100.00
2023-02-19T03:08:36.006Z,100.00
2023-02-19T03:11:28.244Z,100.00
2023-02-19T03:14:44.226Z,100.00
2023-02-19T03:17:43.096Z,100.00
2023-02-19T03:20:19.662Z,100.00
2023-02-19T03:22:52.567Z,100.00
2023-02-19T03:25:49.406Z,100.00
2023-02-19T03:28:44.706Z,100.00
2023-02-19T03:31:21.169Z,100.00
2023-02-19T03:34:00.122Z,100.00
2023-02-19T03:36:41.629Z,100.00
2023-02-19T03:39:17.657Z,100.00
2023-02-19T03:42:17.573Z,100.00
2023-02-19T03:45:18.740Z,100.00
2023-02-19T03:48:18.490Z,100.00
2023-02-19T03:51:01.049Z,100.00
2023-02-19T03:54:06.552Z,100.00
2023-02-19T03:56:43.435Z,100.00
2023-02-19T03:59:27.741Z,100.00
2023-02-19T04:02:09.897Z,100.00
2023-02-19T04:04:49.751Z,100.00
2023-02-19T04:07:20.730Z,100.00
2023-02-19T04:09:52.108Z,100.00
2023-02-19T04:12:21.266Z,100.00
2023-02-19T04:15:10.144Z,100.00
2023-02-19T04:17:48.419Z,100.00
2023-02-19T04:20:20.434Z,100.00
2023-02-19T04:22:50.255Z,100.00
2023-02-19T04:25:21.677Z,100.00
2023-02-19T04:27:51.936Z,100.00
2023-02-19T04:30:22.523Z,100.00
2023-02-19T04:32:52.263Z,100.00
2023-02-19T04:35:20.879Z,100.00
2023-02-19T04:37:49.235Z,100.00
2023-02-19T04:40:17.634Z,100.00
2023-02-19T04:42:46.035Z,100.00
2023-02-19T04:45:14.362Z,100.00
2023-02-19T04:47:42.937Z,100.00
2023-02-19T04:50:11.366Z,100.00
2023-02-19T04:52:39.717Z,100.00
2023-02-19T04:55:09.449Z,100.00
2023-02-19T04:57:36.532Z,100.00
2023-02-19T05:00:06.112Z,100.00
2023-02-19T05:02:33.373Z,100.00
2023-02-19T05:05:01.941Z,100.00
2023-02-19T05:07:30.207Z,100.00
2023-02-19T05:09:59.742Z,100.00
2023-02-19T05:12:27.116Z,100.00
2023-02-19T05:14:55.435Z,100.00
2023-02-19T05:17:23.902Z,100.00
2023-02-19T05:19:52.445Z,100.00
2023-02-19T05:22:20.817Z,100.00
2023-02-19T05:24:49.069Z,100.00
2023-02-19T05:27:17.485Z,100.00
2023-02-19T05:29:46.251Z,100.00
2023-02-19T05:32:14.361Z,100.00
2023-02-19T05:34:42.866Z,100.00
2023-02-19T05:37:11.274Z,100.00
2023-02-19T05:39:39.705Z,100.00
2023-02-19T05:42:12.491Z,100.00
2023-02-19T05:44:43.419Z,100.00
2023-02-19T05:47:13.236Z,100.00
2023-02-19T05:49:43.059Z,100.00
2023-02-19T05:52:12.894Z,100.00
2023-02-19T05:54:42.653Z,100.00
2023-02-19T05:57:12.403Z,100.00
2023-02-19T05:59:42.220Z,100.00
2023-02-19T06:02:12.108Z,100.00
2023-02-19T06:04:41.921Z,100.00
2023-02-19T06:07:11.621Z,100.00
2023-02-19T06:09:41.345Z,100.00
2023-02-19T06:12:16.599Z,100.00
2023-02-19T06:14:46.320Z,100.00
2023-02-19T06:17:16.706Z,100.00
2023-02-19T06:19:46.490Z,100.00
2023-02-19T06:22:17.052Z,100.00
2023-02-19T06:24:48.298Z,100.00
2023-02-19T06:27:18.523Z,100.00
2023-02-19T06:29:48.228Z,100.00
2023-02-19T06:32:18.553Z,100.00
2023-02-19T06:34:48.478Z,100.00
2023-02-19T06:37:18.311Z,100.00
2023-02-19T06:39:48.189Z,100.00
2023-02-19T06:42:18.780Z,100.00
2023-02-19T06:44:49.174Z,100.00
2023-02-19T06:47:18.932Z,100.00
2023-02-19T06:49:48.734Z,100.00
2023-02-19T06:52:18.532Z,100.00
2023-02-19T06:54:48.473Z,100.00
2023-02-19T06:57:19.214Z,100.00
2023-02-19T06:59:48.942Z,100.00
2023-02-19T07:02:18.824Z,100.00
2023-02-19T07:04:48.552Z,100.00
2023-02-19T07:07:18.248Z,100.00
2023-02-19T07:09:48.185Z,100.00
2023-02-19T07:12:18.108Z,100.00
2023-02-19T07:14:48.255Z,100.00
2023-02-19T07:17:17.989Z,100.00
2023-02-19T07:19:47.892Z,100.00
2023-02-19T07:22:17.801Z,100.00
2023-02-19T07:24:48.039Z,100.00
2023-02-19T07:27:18.122Z,100.00
2023-02-19T07:29:47.901Z,100.00
2023-02-19T07:32:17.857Z,100.00
2023-02-19T07:34:47.663Z,100.00
2023-02-19T07:37:17.576Z,100.00
2023-02-19T07:39:47.397Z,100.00
2023-02-19T07:42:17.435Z,100.00
2023-02-19T07:44:47.190Z,100.00
2023-02-19T07:47:16.918Z,100.00
2023-02-19T07:49:46.730Z,100.00
2023-02-19T07:52:15.154Z,100.00
2023-02-19T07:54:43.590Z,100.00
2023-02-19T07:57:12.370Z,100.00
2023-02-19T07:59:41.082Z,100.00
2023-02-19T08:02:39.035Z,100.00
2023-02-19T08:05:08.899Z,100.00
2023-02-19T08:07:38.734Z,100.00
2023-02-19T08:10:27.681Z,100.00
2023-02-19T08:13:17.955Z,100.00
2023-02-19T08:16:10.909Z,100.00
2023-02-19T08:18:44.714Z,100.00
2023-02-19T08:21:18.162Z,100.00
2023-02-19T08:23:50.852Z,100.00
2023-02-19T08:26:20.694Z,100.00
2023-02-19T08:28:50.592Z,100.00
2023-02-19T08:31:20.435Z,98.87
2023-02-19T08:33:50.456Z,99.76
2023-02-19T08:36:20.400Z,99.95
2023-02-19T08:38:50.475Z,98.81
2023-02-19T08:41:20.847Z,99.89
2023-02-19T08:43:50.762Z,99.99
2023-02-19T08:46:21.287Z,100.00
2023-02-19T08:48:52.185Z,99.39
2023-02-19T08:51:21.950Z,97.88
2023-02-19T08:53:51.651Z,95.40
2023-02-19T08:56:21.482Z,95.17
2023-02-19T08:58:51.320Z,93.77
2023-02-19T09:01:21.163Z,94.51
2023-02-19T09:03:51.005Z,96.84
2023-02-19T09:06:21.621Z,100.00
2023-02-19T09:08:51.458Z,95.89
2023-02-19T09:11:21.264Z,93.55
2023-02-19T09:13:49.629Z,86.03
2023-02-19T09:16:18.100Z,90.20
2023-02-19T09:18:46.659Z,96.30
2023-02-19T09:21:14.939Z,97.75
2023-02-19T09:23:43.380Z,91.77
2023-02-19T09:26:14.012Z,95.98
2023-02-19T09:28:43.472Z,93.18
2023-02-19T09:31:15.706Z,94.29
2023-02-19T09:33:48.460Z,92.46
2023-02-19T09:36:18.836Z,93.86
2023-02-19T09:38:48.543Z,93.22
2023-02-19T09:41:31.891Z,91.61
2023-02-19T09:44:05.566Z,94.59
2023-02-19T09:46:43.387Z,92.24
2023-02-19T09:49:19.721Z,94.49
2023-02-19T09:52:33.428Z,93.91
2023-02-19T09:55:16.487Z,93.95
2023-02-19T09:57:48.596Z,92.21
2023-02-19T10:00:27.016Z,89.79
2023-02-19T10:03:11.070Z,90.83
2023-02-19T10:05:42.295Z,92.15
2023-02-19T10:08:21.647Z,91.37
2023-02-19T10:10:53.336Z,88.68
2023-02-19T10:13:36.092Z,88.24
2023-02-19T10:16:14.820Z,89.04
2023-02-19T10:18:47.267Z,88.55
2023-02-19T10:21:28.083Z,86.90
2023-02-19T10:24:03.020Z,87.62
2023-02-19T10:26:36.556Z,85.99
2023-02-19T10:29:06.987Z,85.81
2023-02-19T10:31:36.931Z,77.81
2023-02-19T10:34:22.162Z,75.27
2023-02-19T10:36:53.267Z,73.99
2023-02-19T10:39:22.960Z,73.12
2023-02-19T10:41:56.446Z,77.20
2023-02-19T10:44:44.069Z,77.84
2023-02-19T10:47:22.505Z,80.84
2023-02-19T10:49:58.140Z,78.03
2023-02-19T10:52:35.376Z,77.26
2023-02-19T10:55:38.517Z,79.46
2023-02-19T10:58:27.642Z,80.71
2023-02-19T11:01:16.850Z,78.02
2023-02-19T11:03:52.679Z,73.37
2023-02-19T11:06:27.035Z,69.29
2023-02-19T11:09:01.135Z,73.78
2023-02-19T11:11:37.602Z,73.11
2023-02-19T11:14:24.443Z,72.62
2023-02-19T11:16:58.366Z,67.90
2023-02-19T11:19:48.177Z,68.02
2023-02-19T11:22:30.958Z,65.70
2023-02-19T11:25:12.771Z,67.74
2023-02-19T11:28:21.738Z,72.38
2023-02-19T11:30:51.530Z,69.85
2023-02-19T11:33:22.424Z,72.14
2023-02-19T11:36:23.226Z,72.03
2023-02-19T11:38:55.519Z,73.44
2023-02-19T11:41:56.663Z,74.07
2023-02-19T11:44:48.588Z,74.31
2023-02-19T11:47:48.751Z,74.08
2023-02-19T11:50:42.925Z,72.84
2023-02-19T11:53:33.700Z,72.31
2023-02-19T11:56:34.175Z,70.52
2023-02-19T11:59:28.571Z,69.85
2023-02-19T12:02:21.080Z,69.63
2023-02-19T12:05:03.212Z,70.33
2023-02-19T12:08:10.677Z,68.34
2023-02-19T12:11:20.617Z,67.16
2023-02-19T12:13:59.228Z,67.78
2023-02-19T12:16:41.390Z,67.97
2023-02-19T12:19:39.406Z,67.89
2023-02-19T12:22:32.433Z,69.06
2023-02-19T12:25:43.812Z,69.71
2023-02-19T12:29:01.674Z,69.90
2023-02-19T12:32:06.258Z,69.25
2023-02-19T12:35:24.627Z,68.95
2023-02-19T12:38:23.345Z,67.88
2023-02-19T12:41:34.723Z,67.49
2023-02-19T12:44:22.821Z,67.20
2023-02-19T12:46:59.549Z,66.34
2023-02-19T12:50:21.892Z,67.20
2023-02-19T12:53:34.309Z,67.94
2023-02-19T12:56:39.136Z,66.97
2023-02-19T12:59:15.814Z,67.84
2023-02-19T13:02:20.075Z,67.43
2023-02-19T13:05:02.764Z,67.58
2023-02-19T13:07:49.197Z,68.67
2023-02-19T13:10:41.819Z,68.89
2023-02-19T13:13:26.730Z,69.41
2023-02-19T13:16:09.817Z,67.64
2023-02-19T13:18:52.296Z,65.75
2023-02-19T13:21:45.676Z,65.53
2023-02-19T13:24:26.537Z,65.32
2023-02-19T13:27:14.549Z,66.31
2023-02-19T13:30:02.627Z,65.26
2023-02-19T13:32:50.938Z,65.45
2023-02-19T13:35:51.858Z,64.75
2023-02-19T13:38:22.004Z,65.11
2023-02-19T13:41:00.454Z,65.67
2023-02-19T13:43:35.363Z,63.25
2023-02-19T13:46:12.519Z,62.86
2023-02-19T13:48:44.417Z,63.09
2023-02-19T13:51:17.193Z,61.58
2023-02-19T13:53:48.083Z,61.23
2023-02-19T13:56:30.102Z,61.98
2023-02-19T13:59:02.622Z,62.70
2023-02-19T14:01:53.471Z,61.30
2023-02-19T14:04:47.616Z,63.29
2023-02-19T14:07:17.258Z,62.79
2023-02-19T14:09:48.252Z,62.23
2023-02-19T14:12:22.720Z,62.23
2023-02-19T14:14:56.622Z,62.73
2023-02-19T14:17:45.950Z,61.47
2023-02-19T14:20:15.956Z,62.30
2023-02-19T14:22:45.679Z,61.87
2023-02-19T14:25:27.891Z,58.96
2023-02-19T14:28:09.872Z,58.62
2023-02-19T14:31:17.468Z,57.32
2023-02-19T14:34:26.912Z,57.81
2023-02-19T14:37:01.705Z,56.07
2023-02-19T14:39:38.741Z,56.07
2023-02-19T14:42:33.660Z,57.70
2023-02-19T14:45:07.882Z,59.23
2023-02-19T14:47:37.921Z,60.80
2023-02-19T14:50:29.617Z,59.69
2023-02-19T14:53:04.784Z,59.52
2023-02-19T14:55:40.369Z,60.70
2023-02-19T14:58:30.834Z,62.09
2023-02-19T15:01:00.614Z,60.89
2023-02-19T15:03:34.157Z,59.16
2023-02-19T15:06:16.375Z,58.27
2023-02-19T15:08:58.343Z,57.98
2023-02-19T15:11:32.467Z,57.08
2023-02-19T15:14:07.616Z,57.39
2023-02-19T15:16:37.709Z,57.11
2023-02-19T15:19:12.658Z,58.88
2023-02-19T15:21:49.749Z,60.40
2023-02-19T15:24:19.928Z,61.05
2023-02-19T15:26:54.595Z,61.82
2023-02-19T15:29:28.369Z,61.96
2023-02-19T15:32:01.539Z,62.66
2023-02-19T15:34:33.091Z,62.14
2023-02-19T15:37:08.046Z,61.70
2023-02-19T15:39:47.250Z,61.02
2023-02-19T15:42:26.538Z,62.19
2023-02-19T15:45:18.780Z,63.00
2023-02-19T15:47:57.809Z,62.90
2023-02-19T15:50:34.172Z,63.58
2023-02-19T15:53:26.263Z,63.41
2023-02-19T15:56:32.456Z,63.47
2023-02-19T15:59:27.974Z,65.02
2023-02-19T16:02:00.643Z,64.34
2023-02-19T16:04:30.854Z,65.32
2023-02-19T16:07:03.689Z,64.69
2023-02-19T16:09:37.030Z,65.75
2023-02-19T16:12:25.384Z,66.24
2023-02-19T16:14:55.168Z,66.66
2023-02-19T16:17:28.183Z,66.77
2023-02-19T16:20:03.322Z,67.33
2023-02-19T16:22:42.613Z,67.64
2023-02-19T16:25:31.374Z,67.98
2023-02-19T16:28:24.742Z,68.03
2023-02-19T16:31:02.113Z,68.44
2023-02-19T16:33:41.403Z,68.53
2023-02-19T16:36:34.058Z,68.67
2023-02-19T16:39:09.717Z,68.94
2023-02-19T16:41:39.348Z,69.34
2023-02-19T16:44:21.542Z,70.22
2023-02-19T16:47:02.401Z,70.13
2023-02-19T16:49:32.671Z,70.40
2023-02-19T16:52:04.590Z,71.27
2023-02-19T16:54:34.687Z,71.93
2023-02-19T16:57:04.578Z,71.75
2023-02-19T16:59:34.426Z,71.94
2023-02-19T17:02:09.063Z,72.30
2023-02-19T17:04:38.813Z,73.00
2023-02-19T17:07:15.455Z,74.40
2023-02-19T17:09:45.958Z,75.63
2023-02-19T17:12:18.170Z,77.31
2023-02-19T17:14:47.128Z,78.19
2023-02-19T17:17:15.573Z,79.87
2023-02-19T17:19:44.133Z,81.15
2023-02-19T17:22:16.856Z,82.60
2023-02-19T17:24:46.016Z,83.91
2023-02-19T17:27:16.004Z,85.15
2023-02-19T17:29:45.813Z,86.29
2023-02-19T17:32:15.876Z,87.64
2023-02-19T17:34:49.454Z,89.08
2023-02-19T17:37:19.261Z,89.49
2023-02-19T17:39:49.339Z,90.44
2023-02-19T17:42:20.076Z,91.02
2023-02-19T17:44:51.854Z,91.68
2023-02-19T17:47:21.757Z,92.29
2023-02-19T17:49:51.603Z,93.50
2023-02-19T17:52:21.366Z,94.34
2023-02-19T17:54:51.173Z,94.83
2023-02-19T17:57:20.949Z,95.21
2023-02-19T17:59:50.736Z,95.27
2023-02-19T18:02:20.484Z,95.25
2023-02-19T18:04:50.256Z,94.69
2023-02-19T18:07:20.056Z,94.45
2023-02-19T18:09:49.933Z,93.84
2023-02-19T18:12:19.986Z,93.95
2023-02-19T18:14:49.755Z,94.55
2023-02-19T18:17:19.500Z,94.15
2023-02-19T18:19:49.416Z,94.37
2023-02-19T18:22:19.427Z,95.48
2023-02-19T18:24:53.033Z,95.70
2023-02-19T18:27:23.684Z,95.48
2023-02-19T18:29:55.829Z,95.48
2023-02-19T18:32:26.182Z,96.08
2023-02-19T18:34:59.222Z,96.83
2023-02-19T18:37:33.788Z,97.36
2023-02-19T18:40:05.294Z,97.47
2023-02-19T18:42:35.442Z,97.64
2023-02-19T18:45:05.357Z,98.03
2023-02-19T18:47:35.155Z,97.55
2023-02-19T18:50:08.253Z,97.53
2023-02-19T18:52:38.014Z,98.23
2023-02-19T18:55:10.538Z,99.09
2023-02-19T18:57:40.426Z,98.77
2023-02-19T19:00:23.532Z,99.34
2023-02-19T19:02:51.625Z,99.68
2023-02-19T19:05:23.170Z,100.00
2023-02-19T19:07:55.405Z,100.00
2023-02-19T19:10:25.782Z,99.75
2023-02-19T19:12:55.712Z,99.82
2023-02-19T19:15:26.107Z,99.94
2023-02-19T19:17:55.949Z,99.81
2023-02-19T19:20:25.897Z,99.38
2023-02-19T19:22:55.683Z,99.92
2023-02-19T19:25:25.537Z,100.00
2023-02-19T19:27:56.236Z,100.00
2023-02-19T19:30:26.572Z,100.00
2023-02-19T19:32:57.432Z,100.00
2023-02-19T19:35:28.654Z,100.00
2023-02-19T19:37:58.302Z,100.00
2023-02-19T19:40:28.182Z,100.00
2023-02-19T19:42:57.932Z,100.00
2023-02-19T19:45:27.832Z,100.00
2023-02-19T19:47:57.715Z,100.00
2023-02-19T19:50:27.889Z,100.00
2023-02-19T19:52:57.764Z,100.00
2023-02-19T19:55:27.596Z,100.00
2023-02-19T19:57:57.306Z,100.00
2023-02-19T20:00:27.400Z,100.00
2023-02-19T20:02:57.878Z,100.00
2023-02-19T20:05:27.732Z,100.00
2023-02-19T20:07:57.519Z,100.00
2023-02-19T20:10:27.256Z,100.00
2023-02-19T20:12:55.691Z,100.00
2023-02-19T20:15:24.240Z,100.00
2023-02-19T20:17:52.612Z,100.00
2023-02-19T20:20:22.636Z,100.00
2023-02-19T20:22:53.503Z,100.00
2023-02-19T20:25:23.728Z,100.00
2023-02-19T20:27:52.635Z,100.00
2023-02-19T20:30:23.869Z,100.00
2023-02-19T20:32:53.766Z,100.00
2023-02-19T20:35:26.845Z,100.00
2023-02-19T20:37:56.795Z,100.00
2023-02-19T20:40:30.377Z,100.00
2023-02-19T20:43:01.027Z,100.00
2023-02-19T20:45:31.116Z,100.00
2023-02-19T20:48:01.127Z,100.00
2023-02-19T20:50:31.055Z,100.00
2023-02-19T20:53:01.152Z,100.00
2023-02-19T20:55:32.063Z,100.00
2023-02-19T20:58:01.888Z,100.00
2023-02-19T21:00:31.652Z,100.00
2023-02-19T21:03:01.553Z,100.00
2023-02-19T21:05:31.290Z,100.00
2023-02-19T21:08:01.055Z,100.00
2023-02-19T21:10:31.222Z,100.00
2023-02-19T21:13:00.988Z,100.00
2023-02-19T21:15:30.769Z,100.00
2023-02-19T21:18:00.518Z,100.00
2023-02-19T21:20:30.606Z,100.00
2023-02-19T21:23:01.183Z,100.00
2023-02-19T21:25:33.084Z,100.00
2023-02-19T21:28:02.793Z,100.00
2023-02-19T21:30:32.607Z,100.00
2023-02-19T21:33:00.987Z,100.00
2023-02-19T21:35:29.464Z,100.00
2023-02-19T21:37:58.019Z,100.00
2023-02-19T21:40:28.067Z,100.00
2023-02-19T21:42:58.260Z,100.00
2023-02-19T21:45:26.364Z,100.00
2023-02-19T21:47:55.166Z,100.00
2023-02-19T21:50:23.405Z,100.00
2023-02-19T21:52:51.434Z,100.00
2023-02-19T21:55:19.989Z,100.00
2023-02-19T21:57:48.322Z,100.00
2023-02-19T22:00:17.334Z,100.00
2023-02-19T22:02:45.228Z,100.00
2023-02-19T22:05:13.676Z,100.00
2023-02-19T22:07:42.099Z,100.00
2023-02-19T22:10:10.863Z,100.00
2023-02-19T22:12:38.942Z,100.00
2023-02-19T22:15:08.004Z,100.00
2023-02-19T22:17:35.815Z,100.00
2023-02-19T22:20:06.130Z,100.00
2023-02-19T22:22:35.871Z,100.00
2023-02-19T22:25:06.462Z,100.00
2023-02-19T22:27:36.231Z,100.00
2023-02-19T22:30:07.340Z,100.00
2023-02-19T22:32:35.045Z,100.00
2023-02-19T22:35:05.108Z,100.00
2023-02-19T22:37:34.882Z,100.00
2023-02-19T22:40:05.499Z,100.00
2023-02-19T22:42:36.139Z,100.00
2023-02-19T22:45:07.290Z,100.00
2023-02-19T22:47:37.041Z,100.00
2023-02-19T22:50:08.105Z,100.00
2023-02-19T22:52:37.886Z,100.00
2023-02-19T22:55:07.877Z,100.00
2023-02-19T22:57:37.649Z,100.00
2023-02-19T23:00:09.171Z,100.00
2023-02-19T23:02:38.856Z,100.00
2023-02-19T23:05:08.659Z,100.00
2023-02-19T23:07:38.464Z,100.00
2023-02-19T23:10:09.464Z,100.00
2023-02-19T23:12:41.137Z,100.00
2023-02-19T23:15:11.682Z,100.00
2023-02-19T23:17:41.658Z,100.00
2023-02-19T23:20:12.426Z,100.00
2023-02-19T23:22:42.131Z,100.00
2023-02-19T23:25:11.912Z,100.00
2023-02-19T23:27:41.921Z,100.00
2023-02-19T23:30:12.701Z,100.00
2023-02-19T23:32:43.300Z,100.00
2023-02-19T23:35:13.747Z,100.00
2023-02-19T23:37:43.440Z,100.00
2023-02-19T23:40:13.971Z,100.00
2023-02-19T23:42:43.684Z,100.00
2023-02-19T23:45:16.696Z,100.00
2023-02-19T23:47:46.470Z,100.00
2023-02-19T23:50:17.141Z,100.00
2023-02-19T23:52:46.932Z,100.00
2023-02-19T23:55:17.005Z,100.00
2023-02-19T23:57:46.822Z,100.00
